sensor_id;sensor_type;location;lat;lon;timestamp;pressure;altitude;pressure_sealevel;temperature;humidity
62548;BME280;48602;45.192;5.722;2023-03-03T00:02:16;99349.31;;;5.39;59.83
62548;BME280;48602;45.192;5.722;2023-03-03T00:04:42;99356.31;;;5.37;59.99
62548;BME280;48602;45.192;5.722;2023-03-03T00:07:07;99351.97;;;5.38;60.00
62548;BME280;48602;45.192;5.722;2023-03-03T00:09:32;99348.53;;;5.36;59.86
62548;BME280;48602;45.192;5.722;2023-03-03T00:11:59;99354.66;;;5.35;60.08
62548;BME280;48602;45.192;5.722;2023-03-03T00:14:29;99348.59;;;5.31;59.78
62548;BME280;48602;45.192;5.722;2023-03-03T00:16:57;99354.72;;;5.29;60.05
62548;BME280;48602;45.192;5.722;2023-03-03T00:19:24;99347.81;;;5.24;60.05
62548;BME280;48602;45.192;5.722;2023-03-03T00:21:51;99353.06;;;5.23;59.79
62548;BME280;48602;45.192;5.722;2023-03-03T00:26:56;99358.41;;;5.15;59.76
62548;BME280;48602;45.192;5.722;2023-03-03T00:29:36;99360.22;;;5.10;60.31
62548;BME280;48602;45.192;5.722;2023-03-03T00:34:36;99367.22;;;5.07;60.58
62548;BME280;48602;45.192;5.722;2023-03-03T00:37:02;99362.00;;;5.07;60.94
62548;BME280;48602;45.192;5.722;2023-03-03T00:39:32;99365.50;;;5.06;60.44
62548;BME280;48602;45.192;5.722;2023-03-03T00:41:59;99368.13;;;5.06;60.25
62548;BME280;48602;45.192;5.722;2023-03-03T00:55:25;99372.53;;;5.02;60.49
62548;BME280;48602;45.192;5.722;2023-03-03T00:57:51;99366.50;;;4.99;60.19
62548;BME280;48602;45.192;5.722;2023-03-03T01:00:17;99364.75;;;4.98;60.71
62548;BME280;48602;45.192;5.722;2023-03-03T01:02:45;99370.03;;;4.95;60.79
62548;BME280;48602;45.192;5.722;2023-03-03T01:05:14;99376.16;;;4.92;61.12
62548;BME280;48602;45.192;5.722;2023-03-03T01:07:39;99381.38;;;4.90;60.89
62548;BME280;48602;45.192;5.722;2023-03-03T01:10:05;99374.47;;;4.86;60.97
62548;BME280;48602;45.192;5.722;2023-03-03T01:12:31;99378.91;;;4.83;61.54
62548;BME280;48602;45.192;5.722;2023-03-03T01:14:56;99375.44;;;4.79;61.59
62548;BME280;48602;45.192;5.722;2023-03-03T01:17:22;99378.09;;;4.76;61.12
62548;BME280;48602;45.192;5.722;2023-03-03T01:19:47;99381.59;;;4.74;61.72
62548;BME280;48602;45.192;5.722;2023-03-03T01:22:26;99380.75;;;4.72;61.58
62548;BME280;48602;45.192;5.722;2023-03-03T01:24:53;99379.09;;;4.66;61.36
62548;BME280;48602;45.192;5.722;2023-03-03T01:27:18;99386.09;;;4.64;61.26
62548;BME280;48602;45.192;5.722;2023-03-03T01:29:43;99393.09;;;4.61;61.94
62548;BME280;48602;45.192;5.722;2023-03-03T01:32:09;99390.50;;;4.57;61.58
62548;BME280;48602;45.192;5.722;2023-03-03T01:34:34;99388.78;;;4.56;61.92
62548;BME280;48602;45.192;5.722;2023-03-03T01:36:59;99389.69;;;4.54;62.25
62548;BME280;48602;45.192;5.722;2023-03-03T01:39:25;99385.34;;;4.53;62.51
62548;BME280;48602;45.192;5.722;2023-03-03T01:41:51;99385.38;;;4.51;62.14
62548;BME280;48602;45.192;5.722;2023-03-03T01:44:16;99391.47;;;4.52;62.47
62548;BME280;48602;45.192;5.722;2023-03-03T01:49:33;99390.59;;;4.51;62.02
62548;BME280;48602;45.192;5.722;2023-03-03T01:52:12;99387.91;;;4.56;61.87
62548;BME280;48602;45.192;5.722;2023-03-03T01:54:44;99384.44;;;4.57;62.21
62548;BME280;48602;45.192;5.722;2023-03-03T01:57:21;99383.50;;;4.61;61.62
62548;BME280;48602;45.192;5.722;2023-03-03T01:59:48;99387.88;;;4.61;61.77
62548;BME280;48602;45.192;5.722;2023-03-03T02:02:15;99380.94;;;4.58;61.65
62548;BME280;48602;45.192;5.722;2023-03-03T02:04:41;99382.69;;;4.56;61.74
62548;BME280;48602;45.192;5.722;2023-03-03T02:07:08;99389.66;;;4.55;61.99
62548;BME280;48602;45.192;5.722;2023-03-03T02:10:04;99386.19;;;4.55;62.33
62548;BME280;48602;45.192;5.722;2023-03-03T02:12:54;99385.31;;;4.54;62.67
62548;BME280;48602;45.192;5.722;2023-03-03T02:15:28;99385.31;;;4.54;62.83
62548;BME280;48602;45.192;5.722;2023-03-03T02:17:56;99383.59;;;4.53;62.30
62548;BME280;48602;45.192;5.722;2023-03-03T02:26:21;99385.31;;;4.56;62.24
62548;BME280;48602;45.192;5.722;2023-03-03T02:28:24;99387.94;;;4.54;62.04
62548;BME280;48602;45.192;5.722;2023-03-03T02:30:53;99388.00;;;4.51;62.01
62548;BME280;48602;45.192;5.722;2023-03-03T02:33:19;99382.81;;;4.47;62.78
62548;BME280;48602;45.192;5.722;2023-03-03T02:35:44;99384.59;;;4.43;62.91
62548;BME280;48602;45.192;5.722;2023-03-03T02:38:31;99388.09;;;4.41;63.14
62548;BME280;48602;45.192;5.722;2023-03-03T02:44:01;99381.22;;;4.35;63.71
62548;BME280;48602;45.192;5.722;2023-03-03T02:46:26;99375.16;;;4.30;63.83
62548;BME280;48602;45.192;5.722;2023-03-03T02:48:51;99377.78;;;4.29;63.69
62548;BME280;48602;45.192;5.722;2023-03-03T02:51:16;99376.06;;;4.26;63.54
62548;BME280;48602;45.192;5.722;2023-03-03T02:53:42;99383.03;;;4.26;63.53
62548;BME280;48602;45.192;5.722;2023-03-03T02:56:07;99387.41;;;4.25;64.17
62548;BME280;48602;45.192;5.722;2023-03-03T02:58:34;99378.69;;;4.25;63.26
62548;BME280;48602;45.192;5.722;2023-03-03T03:01:00;99376.13;;;4.21;63.69
62548;BME280;48602;45.192;5.722;2023-03-03T03:03:25;99382.22;;;4.20;63.70
62548;BME280;48602;45.192;5.722;2023-03-03T03:05:51;99382.22;;;4.19;63.59
62548;BME280;48602;45.192;5.722;2023-03-03T03:08:16;99381.41;;;4.18;64.16
62548;BME280;48602;45.192;5.722;2023-03-03T03:10:43;99382.28;;;4.17;64.18
62548;BME280;48602;45.192;5.722;2023-03-03T03:13:08;99385.69;;;4.19;64.09
62548;BME280;48602;45.192;5.722;2023-03-03T03:15:35;99387.44;;;4.20;64.65
62548;BME280;48602;45.192;5.722;2023-03-03T03:18:13;99395.28;;;4.19;64.06
62548;BME280;48602;45.192;5.722;2023-03-03T03:20:39;99390.97;;;4.16;64.14
62548;BME280;48602;45.192;5.722;2023-03-03T03:23:06;99390.13;;;4.16;64.68
62548;BME280;48602;45.192;5.722;2023-03-03T03:25:31;99393.63;;;4.12;65.05
62548;BME280;48602;45.192;5.722;2023-03-03T03:27:56;99393.66;;;4.07;64.38
62548;BME280;48602;45.192;5.722;2023-03-03T03:30:22;99393.66;;;4.06;64.88
62548;BME280;48602;45.192;5.722;2023-03-03T03:32:47;99397.16;;;4.05;64.95
62548;BME280;48602;45.192;5.722;2023-03-03T03:35:13;99388.47;;;4.04;65.18
62548;BME280;48602;45.192;5.722;2023-03-03T03:37:39;99396.28;;;4.06;64.92
62548;BME280;48602;45.192;5.722;2023-03-03T03:40:05;99390.19;;;4.05;64.89
62548;BME280;48602;45.192;5.722;2023-03-03T03:42:31;99395.38;;;4.08;64.83
62548;BME280;48602;45.192;5.722;2023-03-03T03:44:56;99399.72;;;4.09;64.80
62548;BME280;48602;45.192;5.722;2023-03-03T03:47:22;99404.94;;;4.09;64.61
62548;BME280;48602;45.192;5.722;2023-03-03T03:49:47;99394.50;;;4.11;64.82
62548;BME280;48602;45.192;5.722;2023-03-03T03:52:13;99408.41;;;4.13;64.89
62548;BME280;48602;45.192;5.722;2023-03-03T03:54:38;99399.69;;;4.14;65.17
62548;BME280;48602;45.192;5.722;2023-03-03T03:57:03;99399.69;;;4.14;65.18
62548;BME280;48602;45.192;5.722;2023-03-03T03:59:29;99395.34;;;4.13;64.50
62548;BME280;48602;45.192;5.722;2023-03-03T04:01:54;99397.94;;;4.14;65.09
62548;BME280;48602;45.192;5.722;2023-03-03T04:04:20;99395.34;;;4.13;65.01
62548;BME280;48602;45.192;5.722;2023-03-03T04:06:45;99396.22;;;4.15;64.72
62548;BME280;48602;45.192;5.722;2023-03-03T04:09:11;99402.28;;;4.17;64.81
62548;BME280;48602;45.192;5.722;2023-03-03T04:11:36;99397.94;;;4.17;64.74
62548;BME280;48602;45.192;5.722;2023-03-03T04:14:01;99393.56;;;4.18;64.75
62548;BME280;48602;45.192;5.722;2023-03-03T04:16:27;99392.66;;;4.19;64.99
62548;BME280;48602;45.192;5.722;2023-03-03T04:18:52;99399.66;;;4.18;65.33
62548;BME280;48602;45.192;5.722;2023-03-03T04:21:18;99401.34;;;4.19;64.97
62548;BME280;48602;45.192;5.722;2023-03-03T04:23:43;99398.78;;;4.18;64.87
62548;BME280;48602;45.192;5.722;2023-03-03T04:26:09;99404.00;;;4.18;64.88
62548;BME280;48602;45.192;5.722;2023-03-03T04:28:34;99400.53;;;4.17;64.61
62548;BME280;48602;45.192;5.722;2023-03-03T04:31:00;99405.75;;;4.17;65.08
62548;BME280;48602;45.192;5.722;2023-03-03T04:33:26;99406.63;;;4.18;65.49
62548;BME280;48602;45.192;5.722;2023-03-03T04:35:51;99413.53;;;4.19;65.11
62548;BME280;48602;45.192;5.722;2023-03-03T04:38:17;99401.34;;;4.19;65.15
62548;BME280;48602;45.192;5.722;2023-03-03T04:40:42;99408.31;;;4.20;64.95
62548;BME280;48602;45.192;5.722;2023-03-03T04:43:09;99402.19;;;4.23;65.05
62548;BME280;48602;45.192;5.722;2023-03-03T04:45:35;99398.69;;;4.26;64.77
62548;BME280;48602;45.192;5.722;2023-03-03T04:48:00;99399.56;;;4.28;64.60
62548;BME280;48602;45.192;5.722;2023-03-03T04:50:26;99405.63;;;4.30;64.91
62548;BME280;48602;45.192;5.722;2023-03-03T04:52:51;99405.59;;;4.31;64.81
62548;BME280;48602;45.192;5.722;2023-03-03T04:55:20;99404.72;;;4.32;64.87
62548;BME280;48602;45.192;5.722;2023-03-03T04:57:45;99398.66;;;4.32;64.28
62548;BME280;48602;45.192;5.722;2023-03-03T05:00:12;99399.50;;;4.32;64.68
62548;BME280;48602;45.192;5.722;2023-03-03T05:02:39;99408.22;;;4.33;64.67
62548;BME280;48602;45.192;5.722;2023-03-03T05:05:05;99395.16;;;4.33;65.05
62548;BME280;48602;45.192;5.722;2023-03-03T05:07:31;99405.59;;;4.31;65.07
62548;BME280;48602;45.192;5.722;2023-03-03T05:09:56;99408.22;;;4.30;64.89
62548;BME280;48602;45.192;5.722;2023-03-03T05:12:21;99409.94;;;4.32;64.86
62548;BME280;48602;45.192;5.722;2023-03-03T05:14:47;99410.81;;;4.33;64.92
62548;BME280;48602;45.192;5.722;2023-03-03T05:17:12;99409.94;;;4.32;64.71
62548;BME280;48602;45.192;5.722;2023-03-03T05:19:38;99405.59;;;4.31;65.17
62548;BME280;48602;45.192;5.722;2023-03-03T05:22:08;99406.47;;;4.32;64.93
62548;BME280;48602;45.192;5.722;2023-03-03T05:24:36;99408.22;;;4.31;65.11
62548;BME280;48602;45.192;5.722;2023-03-03T05:27:02;99403.84;;;4.33;64.88
62548;BME280;48602;45.192;5.722;2023-03-03T05:29:27;99409.94;;;4.35;65.20
62548;BME280;48602;45.192;5.722;2023-03-03T05:31:56;99405.50;;;4.39;65.23
62548;BME280;48602;45.192;5.722;2023-03-03T05:34:21;99409.84;;;4.41;65.13
62548;BME280;48602;45.192;5.722;2023-03-03T05:36:46;99415.94;;;4.42;64.69
62548;BME280;48602;45.192;5.722;2023-03-03T05:39:12;99416.81;;;4.41;64.59
62548;BME280;48602;45.192;5.722;2023-03-03T05:41:37;99410.72;;;4.40;64.80
62548;BME280;48602;45.192;5.722;2023-03-03T05:44:03;99409.00;;;4.39;64.68
62548;BME280;48602;45.192;5.722;2023-03-03T05:46:28;99412.44;;;4.41;64.94
62548;BME280;48602;45.192;5.722;2023-03-03T05:48:53;99415.06;;;4.41;64.80
62548;BME280;48602;45.192;5.722;2023-03-03T05:51:19;99414.19;;;4.42;64.65
62548;BME280;48602;45.192;5.722;2023-03-03T05:53:44;99409.81;;;4.43;64.66
62548;BME280;48602;45.192;5.722;2023-03-03T05:56:10;99413.31;;;4.43;64.99
62548;BME280;48602;45.192;5.722;2023-03-03T05:58:35;99418.50;;;4.45;64.29
62548;BME280;48602;45.192;5.722;2023-03-03T06:01:01;99415.88;;;4.46;64.36
62548;BME280;48602;45.192;5.722;2023-03-03T06:03:26;99415.00;;;4.47;64.24
62548;BME280;48602;45.192;5.722;2023-03-03T06:05:52;99420.22;;;4.47;64.20
62548;BME280;48602;45.192;5.722;2023-03-03T06:08:17;99408.91;;;4.48;64.66
62548;BME280;48602;45.192;5.722;2023-03-03T06:10:42;99415.84;;;4.49;64.14
62548;BME280;48602;45.192;5.722;2023-03-03T06:13:08;99415.84;;;4.51;64.26
62548;BME280;48602;45.192;5.722;2023-03-03T06:15:33;99421.03;;;4.52;64.14
62548;BME280;48602;45.192;5.722;2023-03-03T06:17:59;99422.75;;;4.53;64.26
62548;BME280;48602;45.192;5.722;2023-03-03T06:20:27;99432.31;;;4.54;64.42
62548;BME280;48602;45.192;5.722;2023-03-03T06:22:53;99431.44;;;4.54;64.14
62548;BME280;48602;45.192;5.722;2023-03-03T06:25:18;99430.56;;;4.55;64.51
62548;BME280;48602;45.192;5.722;2023-03-03T06:27:44;99426.22;;;4.54;64.17
62548;BME280;48602;45.192;5.722;2023-03-03T06:30:10;99439.25;;;4.55;64.08
62548;BME280;48602;45.192;5.722;2023-03-03T06:32:35;99440.13;;;4.56;64.35
62548;BME280;48602;45.192;5.722;2023-03-03T06:35:00;99435.81;;;4.53;64.04
62548;BME280;48602;45.192;5.722;2023-03-03T06:37:26;99438.47;;;4.52;64.26
62548;BME280;48602;45.192;5.722;2023-03-03T06:39:51;99436.66;;;4.54;64.21
62548;BME280;48602;45.192;5.722;2023-03-03T06:42:17;99442.72;;;4.57;64.01
62548;BME280;48602;45.192;5.722;2023-03-03T06:44:44;99448.78;;;4.63;64.28
62548;BME280;48602;45.192;5.722;2023-03-03T06:47:09;99452.22;;;4.66;64.05
62548;BME280;48602;45.192;5.722;2023-03-03T06:49:34;99449.53;;;4.72;64.36
62548;BME280;48602;45.192;5.722;2023-03-03T06:52:01;99448.59;;;4.78;64.88
62548;BME280;48602;45.192;5.722;2023-03-03T06:54:34;99448.53;;;4.85;64.65
62548;BME280;48602;45.192;5.722;2023-03-03T06:57:05;99454.50;;;4.94;64.48
62548;BME280;48602;45.192;5.722;2023-03-03T06:59:33;99457.97;;;4.96;64.43
62548;BME280;48602;45.192;5.722;2023-03-03T07:01:58;99459.66;;;5.00;64.44
62548;BME280;48602;45.192;5.722;2023-03-03T07:04:26;99463.06;;;5.05;64.57
62548;BME280;48602;45.192;5.722;2023-03-03T07:06:54;99466.50;;;5.10;64.91
62548;BME280;48602;45.192;5.722;2023-03-03T07:09:25;99464.66;;;5.18;64.82
62548;BME280;48602;45.192;5.722;2023-03-03T07:11:55;99464.53;;;5.25;64.88
62548;BME280;48602;45.192;5.722;2023-03-03T07:14:21;99472.31;;;5.33;64.72
62548;BME280;48602;45.192;5.722;2023-03-03T07:16:51;99470.44;;;5.40;64.56
62548;BME280;48602;45.192;5.722;2023-03-03T07:19:29;99473.00;;;5.46;64.74
62548;BME280;48602;45.192;5.722;2023-03-03T07:21:56;99471.16;;;5.52;64.47
62548;BME280;48602;45.192;5.722;2023-03-03T07:24:27;99471.03;;;5.60;64.27
62548;BME280;48602;45.192;5.722;2023-03-03T07:27:11;99469.22;;;5.65;64.48
62548;BME280;48602;45.192;5.722;2023-03-03T07:29:39;99468.31;;;5.68;64.10
62548;BME280;48602;45.192;5.722;2023-03-03T07:32:18;99468.31;;;5.69;63.97
62548;BME280;48602;45.192;5.722;2023-03-03T07:34:50;99474.34;;;5.71;64.18
62548;BME280;48602;45.192;5.722;2023-03-03T07:37:25;99477.78;;;5.75;64.05
62548;BME280;48602;45.192;5.722;2023-03-03T07:39:53;99462.91;;;5.80;64.16
62548;BME280;48602;45.192;5.722;2023-03-03T07:42:26;99465.44;;;5.84;63.79
62548;BME280;48602;45.192;5.722;2023-03-03T07:44:54;99470.63;;;5.89;63.62
62548;BME280;48602;45.192;5.722;2023-03-03T07:47:30;99475.81;;;5.92;63.70
62548;BME280;48602;45.192;5.722;2023-03-03T07:50:13;99465.31;;;5.93;63.35
62548;BME280;48602;45.192;5.722;2023-03-03T07:52:58;99464.41;;;5.96;63.32
62548;BME280;48602;45.192;5.722;2023-03-03T07:55:34;99473.09;;;6.00;63.13
62548;BME280;48602;45.192;5.722;2023-03-03T08:03:11;99484.28;;;6.08;63.05
62548;BME280;48602;45.192;5.722;2023-03-03T08:05:43;99478.19;;;6.07;63.15
62548;BME280;48602;45.192;5.722;2023-03-03T08:15:51;99484.91;;;6.22;62.55
62548;BME280;48602;45.192;5.722;2023-03-03T08:18:29;99489.22;;;6.26;62.69
62548;BME280;48602;45.192;5.722;2023-03-03T08:21:22;99486.53;;;6.30;62.36
62548;BME280;48602;45.192;5.722;2023-03-03T08:23:48;99491.69;;;6.37;62.16
62548;BME280;48602;45.192;5.722;2023-03-03T08:26:17;99486.34;;;6.40;62.15
62548;BME280;48602;45.192;5.722;2023-03-03T08:28:43;99485.41;;;6.45;62.33
62548;BME280;48602;45.192;5.722;2023-03-03T08:31:09;99476.59;;;6.49;61.87
62548;BME280;48602;45.192;5.722;2023-03-03T08:33:34;99486.94;;;6.55;61.95
62548;BME280;48602;45.192;5.722;2023-03-03T08:35:59;99481.59;;;6.61;61.90
62548;BME280;48602;45.192;5.722;2023-03-03T08:38:25;99478.03;;;6.67;61.83
62548;BME280;48602;45.192;5.722;2023-03-03T08:40:51;99483.09;;;6.75;61.63
62548;BME280;48602;45.192;5.722;2023-03-03T08:43:17;99481.25;;;6.81;61.47
62548;BME280;48602;45.192;5.722;2023-03-03T08:45:47;99482.88;;;6.87;61.41
62548;BME280;48602;45.192;5.722;2023-03-03T08:48:13;99482.78;;;6.91;61.25
62548;BME280;48602;45.192;5.722;2023-03-03T08:50:39;99484.41;;;6.98;61.01
62548;BME280;48602;45.192;5.722;2023-03-03T08:53:05;99488.63;;;7.04;61.02
62548;BME280;48602;45.192;5.722;2023-03-03T08:55:31;99486.81;;;7.08;60.71
62548;BME280;48602;45.192;5.722;2023-03-03T08:57:57;99483.31;;;7.09;60.53
62548;BME280;48602;45.192;5.722;2023-03-03T09:00:22;99489.34;;;7.12;60.77
62548;BME280;48602;45.192;5.722;2023-03-03T09:02:49;99484.91;;;7.16;60.37
62548;BME280;48602;45.192;5.722;2023-03-03T09:05:16;99491.03;;;7.16;60.47
62548;BME280;48602;45.192;5.722;2023-03-03T09:07:44;99486.66;;;7.17;60.47
62548;BME280;48602;45.192;5.722;2023-03-03T09:10:12;99490.13;;;7.19;60.58
62548;BME280;48602;45.192;5.722;2023-03-03T09:12:41;99496.06;;;7.25;60.07
62548;BME280;48602;45.192;5.722;2023-03-03T09:15:34;99491.59;;;7.30;59.72
62548;BME280;48602;45.192;5.722;2023-03-03T09:20:41;99500.94;;;7.44;59.60
62548;BME280;48602;45.192;5.722;2023-03-03T09:23:37;99496.31;;;7.55;59.25
62548;BME280;48602;45.192;5.722;2023-03-03T09:28:46;99498.72;;;7.65;58.32
62548;BME280;48602;45.192;5.722;2023-03-03T09:31:25;99505.75;;;7.63;58.73
62548;BME280;48602;45.192;5.722;2023-03-03T09:33:51;99503.94;;;7.67;59.08
62548;BME280;48602;45.192;5.722;2023-03-03T09:36:25;99505.53;;;7.72;58.16
62548;BME280;48602;45.192;5.722;2023-03-03T09:38:56;99502.84;;;7.76;58.92
62548;BME280;48602;45.192;5.722;2023-03-03T09:50:06;99502.41;;;7.95;58.44
62548;BME280;48602;45.192;5.722;2023-03-03T09:53:02;99507.50;;;8.01;58.45
62548;BME280;48602;45.192;5.722;2023-03-03T09:55:49;99508.34;;;8.03;58.08
62548;BME280;48602;45.192;5.722;2023-03-03T10:12:24;99511.44;;;8.21;57.83
62548;BME280;48602;45.192;5.722;2023-03-03T10:15:14;99514.78;;;8.26;57.70
62548;BME280;48602;45.192;5.722;2023-03-03T10:23:20;99512.84;;;8.35;56.69
62548;BME280;48602;45.192;5.722;2023-03-03T10:28:51;99509.97;;;8.45;57.64
62548;BME280;48602;45.192;5.722;2023-03-03T10:42:46;99512.88;;;8.68;57.25
62548;BME280;48602;45.192;5.722;2023-03-03T10:45:30;99516.28;;;8.71;57.01
62548;BME280;48602;45.192;5.722;2023-03-03T10:50:50;99502.16;;;8.75;56.56
62548;BME280;48602;45.192;5.722;2023-03-03T10:56:31;99508.88;;;8.87;56.59
62548;BME280;48602;45.192;5.722;2023-03-03T11:01:58;99503.03;;;9.07;56.40
62548;BME280;48602;45.192;5.722;2023-03-03T11:10:23;99504.38;;;9.22;55.01
62548;BME280;48602;45.192;5.722;2023-03-03T11:21:59;99489.88;;;9.07;54.45
62548;BME280;48602;45.192;5.722;2023-03-03T11:33:06;99478.88;;;8.62;54.20
62548;BME280;48602;45.192;5.722;2023-03-03T11:35:40;99487.94;;;8.50;54.41
62548;BME280;48602;45.192;5.722;2023-03-03T11:40:54;99488.44;;;8.29;54.72
62548;BME280;48602;45.192;5.722;2023-03-03T11:43:44;99470.34;;;8.18;54.67
62548;BME280;48602;45.192;5.722;2023-03-03T11:46:22;99469.63;;;8.12;54.90
62548;BME280;48602;45.192;5.722;2023-03-03T11:54:23;99458.31;;;8.08;54.68
62548;BME280;48602;45.192;5.722;2023-03-03T11:56:59;99460.13;;;8.06;55.00
62548;BME280;48602;45.192;5.722;2023-03-03T11:59:57;99452.97;;;8.13;54.98
62548;BME280;48602;45.192;5.722;2023-03-03T12:06:18;99455.13;;;8.31;55.29
62548;BME280;48602;45.192;5.722;2023-03-03T12:08:28;99454.91;;;8.40;54.69
62548;BME280;48602;45.192;5.722;2023-03-03T12:21:44;99440.91;;;8.39;54.16
62548;BME280;48602;45.192;5.722;2023-03-03T12:27:28;99439.28;;;8.35;54.80
62548;BME280;48602;45.192;5.722;2023-03-03T12:30:19;99436.56;;;8.38;54.60
62548;BME280;48602;45.192;5.722;2023-03-03T12:40:34;99426.63;;;8.51;54.54
62548;BME280;48602;45.192;5.722;2023-03-03T12:45:36;99431.22;;;8.42;54.52
62548;BME280;48602;45.192;5.722;2023-03-03T12:48:20;99433.19;;;8.35;54.76
62548;BME280;48602;45.192;5.722;2023-03-03T12:53:51;99430.63;;;8.32;54.84
62548;BME280;48602;45.192;5.722;2023-03-03T12:59:03;99413.41;;;8.20;55.35
62548;BME280;48602;45.192;5.722;2023-03-03T13:12:43;99427.09;;;7.97;56.15
62548;BME280;48602;45.192;5.722;2023-03-03T13:15:12;99420.13;;;7.96;56.17
62548;BME280;48602;45.192;5.722;2023-03-03T13:20:43;99420.13;;;7.96;56.54
62548;BME280;48602;45.192;5.722;2023-03-03T13:23:16;99436.78;;;7.94;56.17
62548;BME280;48602;45.192;5.722;2023-03-03T13:28:40;99410.59;;;7.92;56.45
62548;BME280;48602;45.192;5.722;2023-03-03T13:31:20;99432.44;;;7.93;56.36
62548;BME280;48602;45.192;5.722;2023-03-03T13:33:57;99420.22;;;7.92;56.52
62548;BME280;48602;45.192;5.722;2023-03-03T13:36:28;99435.13;;;7.90;56.79
62548;BME280;48602;45.192;5.722;2023-03-03T13:39:22;99412.50;;;7.86;56.75
62548;BME280;48602;45.192;5.722;2023-03-03T13:41:55;99408.22;;;7.82;56.30
62548;BME280;48602;45.192;5.722;2023-03-03T13:47:13;99423.94;;;7.83;56.92
62548;BME280;48602;45.192;5.722;2023-03-03T13:53:00;99412.47;;;7.87;56.89
62548;BME280;48602;45.192;5.722;2023-03-03T13:58:19;99414.09;;;7.91;56.51
62548;BME280;48602;45.192;5.722;2023-03-03T14:01:06;99425.41;;;7.95;56.52
62548;BME280;48602;45.192;5.722;2023-03-03T14:06:16;99420.06;;;7.98;56.32
62548;BME280;48602;45.192;5.722;2023-03-03T14:12:09;99412.97;;;8.03;56.36
62548;BME280;48602;45.192;5.722;2023-03-03T14:17:33;99411.88;;;8.10;55.90
62548;BME280;48602;45.192;5.722;2023-03-03T14:22:52;99416.97;;;8.18;55.55
62548;BME280;48602;45.192;5.722;2023-03-03T14:25:19;99403.66;;;8.24;55.53
62548;BME280;48602;45.192;5.722;2023-03-03T14:30:26;99418.13;;;8.40;55.40
62548;BME280;48602;45.192;5.722;2023-03-03T14:35:43;99414.66;;;8.39;55.36
62548;BME280;48602;45.192;5.722;2023-03-03T14:38:22;99401.50;;;8.39;55.30
62548;BME280;48602;45.192;5.722;2023-03-03T14:40:49;99426.84;;;8.42;54.85
62548;BME280;48602;45.192;5.722;2023-03-03T14:43:38;99411.06;;;8.42;55.06
62548;BME280;48602;45.192;5.722;2023-03-03T14:49:31;99396.97;;;8.46;55.10
62548;BME280;48602;45.192;5.722;2023-03-03T14:51:52;99392.63;;;8.45;55.11
62548;BME280;48602;45.192;5.722;2023-03-03T14:54:26;99405.66;;;8.48;54.92
62548;BME280;48602;45.192;5.722;2023-03-03T14:59:29;99395.19;;;8.47;55.27
62548;BME280;48602;45.192;5.722;2023-03-03T15:04:49;99389.75;;;8.54;55.18
62548;BME280;48602;45.192;5.722;2023-03-03T15:07:40;99385.28;;;8.56;55.16
62548;BME280;48602;45.192;5.722;2023-03-03T15:10:06;99387.13;;;8.54;54.89
62548;BME280;48602;45.192;5.722;2023-03-03T15:17:43;99380.22;;;8.50;54.98
62548;BME280;48602;45.192;5.722;2023-03-03T15:28:57;99377.13;;;8.36;55.68
62548;BME280;48602;45.192;5.722;2023-03-03T15:40:13;99391.41;;;8.23;55.93
62548;BME280;48602;45.192;5.722;2023-03-03T15:42:48;99391.53;;;8.20;56.45
62548;BME280;48602;45.192;5.722;2023-03-03T15:45:28;99382.78;;;8.19;56.19
62548;BME280;48602;45.192;5.722;2023-03-03T15:52:59;99387.34;;;8.11;56.52
62548;BME280;48602;45.192;5.722;2023-03-03T16:03:20;99390.00;;;8.10;56.88
62548;BME280;48602;45.192;5.722;2023-03-03T16:06:02;99380.41;;;8.09;56.73
62548;BME280;48602;45.192;5.722;2023-03-03T16:16:46;99401.69;;;7.98;57.09
62548;BME280;48602;45.192;5.722;2023-03-03T16:27:18;99396.63;;;7.90;57.34
62548;BME280;48602;45.192;5.722;2023-03-03T16:33:33;99402.03;;;7.86;57.09
62548;BME280;48602;45.192;5.722;2023-03-03T16:35:40;99399.41;;;7.86;57.28
62548;BME280;48602;45.192;5.722;2023-03-03T16:38:13;99399.47;;;7.83;57.23
62548;BME280;48602;45.192;5.722;2023-03-03T16:45:46;99407.47;;;7.77;57.15
62548;BME280;48602;45.192;5.722;2023-03-03T16:50:53;99414.47;;;7.76;57.22
62548;BME280;48602;45.192;5.722;2023-03-03T16:56:17;99423.28;;;7.74;57.26
62548;BME280;48602;45.192;5.722;2023-03-03T16:59:01;99434.69;;;7.72;57.23
62548;BME280;48602;45.192;5.722;2023-03-03T17:07:40;99448.81;;;7.67;57.40
62548;BME280;48602;45.192;5.722;2023-03-03T17:32:11;99463.13;;;7.54;57.40
62548;BME280;48602;45.192;5.722;2023-03-03T17:43:23;99480.81;;;7.44;57.02
62548;BME280;48602;45.192;5.722;2023-03-03T17:45:53;99478.22;;;7.43;57.37
62548;BME280;48602;45.192;5.722;2023-03-03T17:48:40;99490.47;;;7.42;57.37
62548;BME280;48602;45.192;5.722;2023-03-03T17:51:48;99487.91;;;7.39;57.38
62548;BME280;48602;45.192;5.722;2023-03-03T18:04:52;99500.38;;;7.29;57.24
62548;BME280;48602;45.192;5.722;2023-03-03T18:07:37;99518.75;;;7.28;57.40
62548;BME280;48602;45.192;5.722;2023-03-03T18:21:20;99525.81;;;7.24;57.44
62548;BME280;48602;45.192;5.722;2023-03-03T18:24:14;99541.59;;;7.21;57.16
62548;BME280;48602;45.192;5.722;2023-03-03T18:26:51;99539.06;;;7.18;57.41
62548;BME280;48602;45.192;5.722;2023-03-03T18:29:24;99530.34;;;7.18;57.56
62548;BME280;48602;45.192;5.722;2023-03-03T18:37:02;99550.47;;;7.16;57.44
62548;BME280;48602;45.192;5.722;2023-03-03T18:39:43;99539.97;;;7.16;57.65
62548;BME280;48602;45.192;5.722;2023-03-03T18:44:44;99539.16;;;7.14;57.69
62548;BME280;48602;45.192;5.722;2023-03-03T18:47:12;99544.41;;;7.12;57.50
62548;BME280;48602;45.192;5.722;2023-03-03T18:52:36;99547.06;;;7.11;57.55
62548;BME280;48602;45.192;5.722;2023-03-03T18:55:21;99540.94;;;7.10;57.38
62548;BME280;48602;45.192;5.722;2023-03-03T19:00:45;99548.03;;;7.05;57.67
62548;BME280;48602;45.192;5.722;2023-03-03T19:05:52;99534.94;;;7.05;57.55
62548;BME280;48602;45.192;5.722;2023-03-03T19:11:55;99537.59;;;7.04;57.89
62548;BME280;48602;45.192;5.722;2023-03-03T19:20:10;99541.97;;;7.03;57.70
62548;BME280;48602;45.192;5.722;2023-03-03T19:22:52;99549.88;;;7.02;57.72
62548;BME280;48602;45.192;5.722;2023-03-03T19:25:36;99549.91;;;7.00;57.69
62548;BME280;48602;45.192;5.722;2023-03-03T19:29:15;99546.41;;;6.99;57.65
62548;BME280;48602;45.192;5.722;2023-03-03T19:31:23;99547.31;;;6.98;57.85